Wilkinson, Indiana
Current Conditions -  °F | °C
As of 4:35 PM on Saturday 25 Oct 2014 (Local Time) from KMQJ Reporting Station
Clear Clear  
Wind Chill: 75°   Ceiling: Unl
Heat Index: 75°   Visibility: 10mi
Dew Point: 28°   Wind: 18mph
Humidity: 18%   Direction: 290°WNW
Pressure: 29.93"   Gusts: 23mph
Location:  39.89°N, 85.61°W
Report Text: KMQJ 252035Z AUTO 29016G20KT 10SM CLR 24/M02 A2993 RMK AO1
Loading
Personal Weather Stations






























Interactive Weather Map
Tropical Storm Tracking
New forecast layout! Learn more

10-Day Weather Forecast

Advertisements
Track Severe Weather on mobile